sensor_id;sensor_type;location;lat;lon;timestamp;P1;durP1;ratioP1;P2;durP2;ratioP2
7475;SDS011;3779;49.216;8.650;2023-07-13T00:02:12;3.38;;;1.58;;
7475;SDS011;3779;49.216;8.650;2023-07-13T00:04:59;2.70;;;1.50;;
7475;SDS011;3779;49.216;8.650;2023-07-13T00:07:45;6.80;;;1.80;;
7475;SDS011;3779;49.216;8.650;2023-07-13T00:10:31;3.88;;;1.50;;
7475;SDS011;3779;49.216;8.650;2023-07-13T00:13:17;3.63;;;1.50;;
7475;SDS011;3779;49.216;8.650;2023-07-13T00:16:03;4.40;;;1.63;;
7475;SDS011;3779;49.216;8.650;2023-07-13T00:18:49;2.47;;;1.50;;
7475;SDS011;3779;49.216;8.650;2023-07-13T00:21:34;3.70;;;1.50;;
7475;SDS011;3779;49.216;8.650;2023-07-13T00:24:20;4.28;;;1.55;;
7475;SDS011;3779;49.216;8.650;2023-07-13T00:27:09;2.35;;;1.70;;
7475;SDS011;3779;49.216;8.650;2023-07-13T00:29:54;1.95;;;1.42;;
7475;SDS011;3779;49.216;8.650;2023-07-13T00:32:40;1.30;;;1.20;;
7475;SDS011;3779;49.216;8.650;2023-07-13T00:35:26;1.95;;;1.70;;
7475;SDS011;3779;49.216;8.650;2023-07-13T00:38:15;1.92;;;1.50;;
7475;SDS011;3779;49.216;8.650;2023-07-13T00:41:02;2.85;;;1.50;;
7475;SDS011;3779;49.216;8.650;2023-07-13T00:43:49;3.35;;;1.50;;
7475;SDS011;3779;49.216;8.650;2023-07-13T00:46:34;1.65;;;1.38;;
7475;SDS011;3779;49.216;8.650;2023-07-13T00:49:22;2.50;;;1.50;;
7475;SDS011;3779;49.216;8.650;2023-07-13T00:52:09;3.17;;;1.40;;
7475;SDS011;3779;49.216;8.650;2023-07-13T00:54:55;2.65;;;1.70;;
7475;SDS011;3779;49.216;8.650;2023-07-13T00:57:41;8.70;;;1.52;;
7475;SDS011;3779;49.216;8.650;2023-07-13T01:00:28;2.03;;;1.40;;
7475;SDS011;3779;49.216;8.650;2023-07-13T01:03:15;2.35;;;1.52;;
7475;SDS011;3779;49.216;8.650;2023-07-13T01:06:01;5.00;;;1.50;;
7475;SDS011;3779;49.216;8.650;2023-07-13T01:08:47;3.60;;;1.60;;
7475;SDS011;3779;49.216;8.650;2023-07-13T01:11:33;1.42;;;1.33;;
7475;SDS011;3779;49.216;8.650;2023-07-13T01:14:20;3.85;;;1.70;;
7475;SDS011;3779;49.216;8.650;2023-07-13T01:17:07;1.63;;;1.27;;
7475;SDS011;3779;49.216;8.650;2023-07-13T01:19:56;3.88;;;1.55;;
7475;SDS011;3779;49.216;8.650;2023-07-13T01:22:42;3.22;;;1.58;;
7475;SDS011;3779;49.216;8.650;2023-07-13T01:25:28;4.00;;;1.52;;
7475;SDS011;3779;49.216;8.650;2023-07-13T01:28:15;3.90;;;1.50;;
7475;SDS011;3779;49.216;8.650;2023-07-13T01:31:02;1.85;;;1.63;;
7475;SDS011;3779;49.216;8.650;2023-07-13T01:33:48;4.07;;;1.50;;
7475;SDS011;3779;49.216;8.650;2023-07-13T01:36:34;2.95;;;1.70;;
7475;SDS011;3779;49.216;8.650;2023-07-13T01:39:21;3.30;;;1.50;;
7475;SDS011;3779;49.216;8.650;2023-07-13T01:42:07;1.60;;;1.30;;
7475;SDS011;3779;49.216;8.650;2023-07-13T01:44:53;3.42;;;1.63;;
7475;SDS011;3779;49.216;8.650;2023-07-13T01:47:39;2.17;;;1.65;;
7475;SDS011;3779;49.216;8.650;2023-07-13T01:50:25;2.10;;;1.58;;
7475;SDS011;3779;49.216;8.650;2023-07-13T01:53:11;1.92;;;1.60;;
7475;SDS011;3779;49.216;8.650;2023-07-13T01:55:58;4.63;;;1.80;;
7475;SDS011;3779;49.216;8.650;2023-07-13T01:58:44;7.60;;;1.88;;
7475;SDS011;3779;49.216;8.650;2023-07-13T02:01:30;3.13;;;1.60;;
7475;SDS011;3779;49.216;8.650;2023-07-13T02:04:16;1.80;;;1.65;;
7475;SDS011;3779;49.216;8.650;2023-07-13T02:07:02;4.20;;;1.45;;
7475;SDS011;3779;49.216;8.650;2023-07-13T02:09:48;1.77;;;1.40;;
7475;SDS011;3779;49.216;8.650;2023-07-13T02:12:34;2.83;;;1.50;;
7475;SDS011;3779;49.216;8.650;2023-07-13T02:15:20;5.13;;;1.63;;
7475;SDS011;3779;49.216;8.650;2023-07-13T02:18:06;1.73;;;1.38;;
7475;SDS011;3779;49.216;8.650;2023-07-13T02:20:52;3.08;;;1.50;;
7475;SDS011;3779;49.216;8.650;2023-07-13T02:23:38;3.03;;;1.70;;
7475;SDS011;3779;49.216;8.650;2023-07-13T02:26:24;3.50;;;1.60;;
7475;SDS011;3779;49.216;8.650;2023-07-13T02:29:10;2.88;;;1.60;;
7475;SDS011;3779;49.216;8.650;2023-07-13T02:31:56;5.15;;;1.50;;
7475;SDS011;3779;49.216;8.650;2023-07-13T02:34:46;5.43;;;1.63;;
7475;SDS011;3779;49.216;8.650;2023-07-13T02:37:32;2.55;;;1.38;;
7475;SDS011;3779;49.216;8.650;2023-07-13T02:40:17;4.85;;;1.70;;
7475;SDS011;3779;49.216;8.650;2023-07-13T02:43:04;1.40;;;1.30;;
7475;SDS011;3779;49.216;8.650;2023-07-13T02:45:50;2.33;;;1.80;;
7475;SDS011;3779;49.216;8.650;2023-07-13T02:48:37;2.17;;;1.40;;
7475;SDS011;3779;49.216;8.650;2023-07-13T02:51:24;1.83;;;1.50;;
7475;SDS011;3779;49.216;8.650;2023-07-13T02:54:10;1.95;;;1.50;;
7475;SDS011;3779;49.216;8.650;2023-07-13T02:56:57;2.28;;;1.50;;
7475;SDS011;3779;49.216;8.650;2023-07-13T02:59:43;1.70;;;1.42;;
7475;SDS011;3779;49.216;8.650;2023-07-13T03:02:28;3.47;;;1.70;;
7475;SDS011;3779;49.216;8.650;2023-07-13T03:05:15;3.95;;;1.52;;
7475;SDS011;3779;49.216;8.650;2023-07-13T03:08:02;3.72;;;1.58;;
7475;SDS011;3779;49.216;8.650;2023-07-13T03:10:58;3.92;;;1.70;;
7475;SDS011;3779;49.216;8.650;2023-07-13T03:13:46;2.90;;;1.70;;
7475;SDS011;3779;49.216;8.650;2023-07-13T03:16:32;3.38;;;1.63;;
7475;SDS011;3779;49.216;8.650;2023-07-13T03:19:18;2.03;;;1.60;;
7475;SDS011;3779;49.216;8.650;2023-07-13T03:22:09;4.07;;;1.73;;
7475;SDS011;3779;49.216;8.650;2023-07-13T03:24:57;3.50;;;1.70;;
7475;SDS011;3779;49.216;8.650;2023-07-13T03:27:42;4.50;;;1.60;;
7475;SDS011;3779;49.216;8.650;2023-07-13T03:30:28;1.65;;;1.55;;
7475;SDS011;3779;49.216;8.650;2023-07-13T03:33:14;2.22;;;1.70;;
7475;SDS011;3779;49.216;8.650;2023-07-13T03:36:00;3.55;;;1.67;;
7475;SDS011;3779;49.216;8.650;2023-07-13T03:38:48;2.13;;;1.55;;
7475;SDS011;3779;49.216;8.650;2023-07-13T03:41:37;4.22;;;1.60;;
7475;SDS011;3779;49.216;8.650;2023-07-13T03:44:23;2.85;;;1.42;;
7475;SDS011;3779;49.216;8.650;2023-07-13T03:47:13;3.00;;;1.38;;
7475;SDS011;3779;49.216;8.650;2023-07-13T03:49:58;3.90;;;1.60;;
7475;SDS011;3779;49.216;8.650;2023-07-13T03:52:44;3.30;;;1.60;;
7475;SDS011;3779;49.216;8.650;2023-07-13T03:55:34;3.30;;;1.60;;
7475;SDS011;3779;49.216;8.650;2023-07-13T04:01:22;2.95;;;1.55;;
7475;SDS011;3779;49.216;8.650;2023-07-13T04:04:10;1.73;;;1.60;;
7475;SDS011;3779;49.216;8.650;2023-07-13T04:06:57;4.05;;;1.50;;
7475;SDS011;3779;49.216;8.650;2023-07-13T04:09:43;2.95;;;1.73;;
7475;SDS011;3779;49.216;8.650;2023-07-13T04:12:29;2.53;;;1.50;;
7475;SDS011;3779;49.216;8.650;2023-07-13T04:15:15;2.17;;;1.85;;
7475;SDS011;3779;49.216;8.650;2023-07-13T04:18:01;4.63;;;1.77;;
7475;SDS011;3779;49.216;8.650;2023-07-13T04:20:48;2.75;;;1.67;;
7475;SDS011;3779;49.216;8.650;2023-07-13T04:23:35;3.20;;;1.80;;
7475;SDS011;3779;49.216;8.650;2023-07-13T04:26:23;2.38;;;1.70;;
7475;SDS011;3779;49.216;8.650;2023-07-13T04:29:09;3.58;;;1.65;;
7475;SDS011;3779;49.216;8.650;2023-07-13T04:31:55;3.30;;;2.00;;
7475;SDS011;3779;49.216;8.650;2023-07-13T04:34:40;3.35;;;1.95;;
7475;SDS011;3779;49.216;8.650;2023-07-13T04:37:26;2.75;;;1.95;;
7475;SDS011;3779;49.216;8.650;2023-07-13T04:40:12;5.00;;;2.10;;
7475;SDS011;3779;49.216;8.650;2023-07-13T04:42:58;2.10;;;1.80;;
7475;SDS011;3779;49.216;8.650;2023-07-13T04:45:44;2.17;;;1.98;;
7475;SDS011;3779;49.216;8.650;2023-07-13T04:48:29;4.00;;;2.20;;
7475;SDS011;3779;49.216;8.650;2023-07-13T04:51:15;2.30;;;2.10;;
7475;SDS011;3779;49.216;8.650;2023-07-13T04:54:01;3.05;;;2.03;;
7475;SDS011;3779;49.216;8.650;2023-07-13T04:56:47;3.08;;;2.03;;
7475;SDS011;3779;49.216;8.650;2023-07-13T04:59:33;4.68;;;1.98;;
7475;SDS011;3779;49.216;8.650;2023-07-13T05:02:22;3.92;;;2.08;;
7475;SDS011;3779;49.216;8.650;2023-07-13T05:05:08;5.55;;;2.10;;
7475;SDS011;3779;49.216;8.650;2023-07-13T05:07:54;6.22;;;2.22;;
7475;SDS011;3779;49.216;8.650;2023-07-13T05:10:40;2.95;;;2.20;;
7475;SDS011;3779;49.216;8.650;2023-07-13T05:13:25;4.25;;;2.05;;
7475;SDS011;3779;49.216;8.650;2023-07-13T05:16:11;2.90;;;1.85;;
7475;SDS011;3779;49.216;8.650;2023-07-13T05:18:57;3.45;;;2.20;;
7475;SDS011;3779;49.216;8.650;2023-07-13T05:21:43;4.10;;;2.17;;
7475;SDS011;3779;49.216;8.650;2023-07-13T05:24:29;3.63;;;1.95;;
7475;SDS011;3779;49.216;8.650;2023-07-13T05:27:15;3.30;;;1.77;;
7475;SDS011;3779;49.216;8.650;2023-07-13T05:30:02;3.50;;;2.13;;
7475;SDS011;3779;49.216;8.650;2023-07-13T05:32:49;3.33;;;1.77;;
7475;SDS011;3779;49.216;8.650;2023-07-13T05:35:35;2.22;;;2.03;;
7475;SDS011;3779;49.216;8.650;2023-07-13T05:38:21;4.47;;;2.10;;
7475;SDS011;3779;49.216;8.650;2023-07-13T05:41:07;3.40;;;2.13;;
7475;SDS011;3779;49.216;8.650;2023-07-13T05:43:53;4.47;;;2.20;;
7475;SDS011;3779;49.216;8.650;2023-07-13T05:46:39;3.65;;;2.00;;
7475;SDS011;3779;49.216;8.650;2023-07-13T05:49:25;3.72;;;1.90;;
7475;SDS011;3779;49.216;8.650;2023-07-13T05:52:10;2.90;;;2.10;;
7475;SDS011;3779;49.216;8.650;2023-07-13T05:54:56;5.13;;;2.60;;
7475;SDS011;3779;49.216;8.650;2023-07-13T05:57:42;4.03;;;1.92;;
7475;SDS011;3779;49.216;8.650;2023-07-13T06:00:28;4.53;;;2.17;;
7475;SDS011;3779;49.216;8.650;2023-07-13T06:03:14;4.45;;;2.10;;
7475;SDS011;3779;49.216;8.650;2023-07-13T06:06:05;3.20;;;2.40;;
7475;SDS011;3779;49.216;8.650;2023-07-13T06:09:01;5.32;;;2.25;;
7475;SDS011;3779;49.216;8.650;2023-07-13T06:14:58;2.55;;;2.30;;
7475;SDS011;3779;49.216;8.650;2023-07-13T06:17:44;2.33;;;1.80;;
7475;SDS011;3779;49.216;8.650;2023-07-13T06:20:30;5.70;;;2.13;;
7475;SDS011;3779;49.216;8.650;2023-07-13T06:23:19;3.38;;;1.92;;
7475;SDS011;3779;49.216;8.650;2023-07-13T06:26:11;6.45;;;2.30;;
7475;SDS011;3779;49.216;8.650;2023-07-13T06:28:57;2.72;;;1.80;;
7475;SDS011;3779;49.216;8.650;2023-07-13T06:31:43;3.00;;;1.52;;
7475;SDS011;3779;49.216;8.650;2023-07-13T06:34:28;4.18;;;1.90;;
7475;SDS011;3779;49.216;8.650;2023-07-13T06:37:14;2.03;;;1.80;;
7475;SDS011;3779;49.216;8.650;2023-07-13T06:40:00;2.45;;;1.80;;
7475;SDS011;3779;49.216;8.650;2023-07-13T06:42:46;4.85;;;1.83;;
7475;SDS011;3779;49.216;8.650;2023-07-13T06:45:32;2.97;;;1.70;;
7475;SDS011;3779;49.216;8.650;2023-07-13T06:48:26;2.50;;;1.77;;
7475;SDS011;3779;49.216;8.650;2023-07-13T06:51:13;3.97;;;1.75;;
7475;SDS011;3779;49.216;8.650;2023-07-13T06:53:59;3.55;;;1.73;;
7475;SDS011;3779;49.216;8.650;2023-07-13T06:56:45;3.63;;;1.63;;
7475;SDS011;3779;49.216;8.650;2023-07-13T06:59:31;2.60;;;1.58;;
7475;SDS011;3779;49.216;8.650;2023-07-13T07:02:16;3.20;;;1.65;;
7475;SDS011;3779;49.216;8.650;2023-07-13T07:05:02;3.65;;;1.85;;
7475;SDS011;3779;49.216;8.650;2023-07-13T07:07:52;3.78;;;1.75;;
7475;SDS011;3779;49.216;8.650;2023-07-13T07:10:39;3.78;;;1.65;;
7475;SDS011;3779;49.216;8.650;2023-07-13T07:13:25;2.35;;;1.60;;
7475;SDS011;3779;49.216;8.650;2023-07-13T07:16:13;2.60;;;1.90;;
7475;SDS011;3779;49.216;8.650;2023-07-13T07:18:59;3.20;;;1.92;;
7475;SDS011;3779;49.216;8.650;2023-07-13T07:21:45;3.08;;;1.70;;
7475;SDS011;3779;49.216;8.650;2023-07-13T07:24:31;2.63;;;1.60;;
7475;SDS011;3779;49.216;8.650;2023-07-13T07:27:17;7.38;;;1.80;;
7475;SDS011;3779;49.216;8.650;2023-07-13T07:30:02;1.48;;;1.38;;
7475;SDS011;3779;49.216;8.650;2023-07-13T07:32:49;2.80;;;1.70;;
7475;SDS011;3779;49.216;8.650;2023-07-13T07:35:36;3.65;;;1.80;;
7475;SDS011;3779;49.216;8.650;2023-07-13T07:38:21;1.55;;;1.20;;
7475;SDS011;3779;49.216;8.650;2023-07-13T07:41:07;2.00;;;1.50;;
7475;SDS011;3779;49.216;8.650;2023-07-13T07:43:53;1.30;;;1.20;;
7475;SDS011;3779;49.216;8.650;2023-07-13T07:46:39;4.32;;;1.75;;
7475;SDS011;3779;49.216;8.650;2023-07-13T07:49:26;3.08;;;1.90;;
7475;SDS011;3779;49.216;8.650;2023-07-13T07:52:12;1.70;;;1.60;;
7475;SDS011;3779;49.216;8.650;2023-07-13T07:54:58;5.30;;;2.03;;
7475;SDS011;3779;49.216;8.650;2023-07-13T07:57:44;2.75;;;1.63;;
7475;SDS011;3779;49.216;8.650;2023-07-13T08:00:30;2.75;;;1.65;;
7475;SDS011;3779;49.216;8.650;2023-07-13T08:03:16;1.92;;;1.58;;
7475;SDS011;3779;49.216;8.650;2023-07-13T08:06:02;2.72;;;1.60;;
7475;SDS011;3779;49.216;8.650;2023-07-13T08:08:48;2.65;;;1.40;;
7475;SDS011;3779;49.216;8.650;2023-07-13T08:11:34;2.97;;;1.45;;
7475;SDS011;3779;49.216;8.650;2023-07-13T08:14:20;4.53;;;1.60;;
7475;SDS011;3779;49.216;8.650;2023-07-13T08:17:06;1.40;;;1.02;;
7475;SDS011;3779;49.216;8.650;2023-07-13T08:19:52;3.95;;;1.75;;
7475;SDS011;3779;49.216;8.650;2023-07-13T08:22:38;1.50;;;1.20;;
7475;SDS011;3779;49.216;8.650;2023-07-13T08:25:23;1.25;;;1.15;;
7475;SDS011;3779;49.216;8.650;2023-07-13T08:28:09;1.10;;;1.00;;
7475;SDS011;3779;49.216;8.650;2023-07-13T08:30:55;2.35;;;1.10;;
7475;SDS011;3779;49.216;8.650;2023-07-13T08:33:46;1.17;;;1.08;;
7475;SDS011;3779;49.216;8.650;2023-07-13T08:36:32;1.15;;;1.08;;
7475;SDS011;3779;49.216;8.650;2023-07-13T08:39:18;1.67;;;1.08;;
7475;SDS011;3779;49.216;8.650;2023-07-13T08:42:05;3.15;;;1.45;;
7475;SDS011;3779;49.216;8.650;2023-07-13T08:48:07;2.95;;;1.23;;
7475;SDS011;3779;49.216;8.650;2023-07-13T08:51:00;1.13;;;1.00;;
7475;SDS011;3779;49.216;8.650;2023-07-13T08:54:12;2.60;;;1.38;;
7475;SDS011;3779;49.216;8.650;2023-07-13T08:57:05;2.00;;;1.40;;
7475;SDS011;3779;49.216;8.650;2023-07-13T09:00:00;4.37;;;1.60;;
7475;SDS011;3779;49.216;8.650;2023-07-13T09:02:56;2.22;;;1.40;;
7475;SDS011;3779;49.216;8.650;2023-07-13T09:05:44;2.90;;;1.38;;
7475;SDS011;3779;49.216;8.650;2023-07-13T09:11:33;1.08;;;0.98;;
7475;SDS011;3779;49.216;8.650;2023-07-13T09:14:47;1.35;;;1.10;;
7475;SDS011;3779;49.216;8.650;2023-07-13T09:17:41;1.92;;;1.35;;
7475;SDS011;3779;49.216;8.650;2023-07-13T09:20:50;1.27;;;1.10;;
7475;SDS011;3779;49.216;8.650;2023-07-13T09:23:43;2.38;;;1.17;;
7475;SDS011;3779;49.216;8.650;2023-07-13T09:26:29;0.98;;;0.93;;
7475;SDS011;3779;49.216;8.650;2023-07-13T09:29:21;6.53;;;1.40;;
7475;SDS011;3779;49.216;8.650;2023-07-13T09:32:14;5.13;;;1.10;;
7475;SDS011;3779;49.216;8.650;2023-07-13T09:35:05;1.55;;;1.20;;
7475;SDS011;3779;49.216;8.650;2023-07-13T09:38:04;3.75;;;1.70;;
7475;SDS011;3779;49.216;8.650;2023-07-13T09:41:13;2.20;;;1.20;;
7475;SDS011;3779;49.216;8.650;2023-07-13T09:44:14;2.83;;;1.42;;
7475;SDS011;3779;49.216;8.650;2023-07-13T09:50:10;2.08;;;1.20;;
7475;SDS011;3779;49.216;8.650;2023-07-13T09:53:01;1.70;;;0.90;;
7475;SDS011;3779;49.216;8.650;2023-07-13T09:55:48;1.52;;;1.13;;
7475;SDS011;3779;49.216;8.650;2023-07-13T09:58:34;2.25;;;1.27;;
7475;SDS011;3779;49.216;8.650;2023-07-13T10:01:36;1.88;;;1.20;;
7475;SDS011;3779;49.216;8.650;2023-07-13T10:04:33;2.60;;;1.20;;
7475;SDS011;3779;49.216;8.650;2023-07-13T10:07:22;2.63;;;1.55;;
7475;SDS011;3779;49.216;8.650;2023-07-13T10:10:14;0.82;;;0.82;;
7475;SDS011;3779;49.216;8.650;2023-07-13T10:13:09;1.73;;;1.00;;
7475;SDS011;3779;49.216;8.650;2023-07-13T10:16:15;1.83;;;1.23;;
7475;SDS011;3779;49.216;8.650;2023-07-13T10:24:50;2.35;;;1.40;;
7475;SDS011;3779;49.216;8.650;2023-07-13T10:27:40;3.08;;;1.55;;
7475;SDS011;3779;49.216;8.650;2023-07-13T10:30:27;1.48;;;1.05;;
7475;SDS011;3779;49.216;8.650;2023-07-13T10:33:16;3.13;;;1.58;;
7475;SDS011;3779;49.216;8.650;2023-07-13T10:39:19;1.85;;;1.20;;
7475;SDS011;3779;49.216;8.650;2023-07-13T10:42:08;2.22;;;1.33;;
7475;SDS011;3779;49.216;8.650;2023-07-13T10:45:23;1.17;;;1.00;;
7475;SDS011;3779;49.216;8.650;2023-07-13T10:48:11;2.65;;;1.10;;
7475;SDS011;3779;49.216;8.650;2023-07-13T10:50:59;2.55;;;1.40;;
7475;SDS011;3779;49.216;8.650;2023-07-13T10:53:46;4.60;;;1.50;;
7475;SDS011;3779;49.216;8.650;2023-07-13T10:56:33;1.48;;;1.08;;
7475;SDS011;3779;49.216;8.650;2023-07-13T10:59:26;1.23;;;1.00;;
7475;SDS011;3779;49.216;8.650;2023-07-13T11:02:27;1.23;;;1.13;;
7475;SDS011;3779;49.216;8.650;2023-07-13T11:08:34;2.47;;;1.42;;
7475;SDS011;3779;49.216;8.650;2023-07-13T11:11:40;1.48;;;1.10;;
7475;SDS011;3779;49.216;8.650;2023-07-13T11:14:31;2.00;;;1.08;;
7475;SDS011;3779;49.216;8.650;2023-07-13T11:20:45;1.05;;;1.00;;
7475;SDS011;3779;49.216;8.650;2023-07-13T11:23:44;1.80;;;1.20;;
7475;SDS011;3779;49.216;8.650;2023-07-13T11:36:29;3.13;;;1.50;;
7475;SDS011;3779;49.216;8.650;2023-07-13T11:39:21;1.85;;;1.20;;
7475;SDS011;3779;49.216;8.650;2023-07-13T11:42:21;2.10;;;1.45;;
7475;SDS011;3779;49.216;8.650;2023-07-13T11:45:22;2.42;;;1.45;;
7475;SDS011;3779;49.216;8.650;2023-07-13T11:48:21;4.55;;;1.90;;
7475;SDS011;3779;49.216;8.650;2023-07-13T11:51:15;2.75;;;2.08;;
7475;SDS011;3779;49.216;8.650;2023-07-13T11:54:30;2.20;;;1.50;;
7475;SDS011;3779;49.216;8.650;2023-07-13T12:00:14;1.88;;;1.33;;
7475;SDS011;3779;49.216;8.650;2023-07-13T12:03:02;1.35;;;1.25;;
7475;SDS011;3779;49.216;8.650;2023-07-13T12:06:00;1.17;;;1.10;;
7475;SDS011;3779;49.216;8.650;2023-07-13T12:08:51;1.65;;;1.27;;
7475;SDS011;3779;49.216;8.650;2023-07-13T12:11:37;1.23;;;1.00;;
7475;SDS011;3779;49.216;8.650;2023-07-13T12:14:25;1.65;;;1.48;;
7475;SDS011;3779;49.216;8.650;2023-07-13T12:23:34;2.05;;;1.27;;
7475;SDS011;3779;49.216;8.650;2023-07-13T12:26:21;4.18;;;1.40;;
7475;SDS011;3779;49.216;8.650;2023-07-13T12:29:07;3.50;;;1.30;;
7475;SDS011;3779;49.216;8.650;2023-07-13T14:04:50;1.38;;;1.10;;
7475;SDS011;3779;49.216;8.650;2023-07-13T16:43:16;1.77;;;1.10;;
7475;SDS011;3779;49.216;8.650;2023-07-13T16:46:10;1.10;;;0.93;;
7475;SDS011;3779;49.216;8.650;2023-07-13T16:48:59;1.90;;;0.90;;
7475;SDS011;3779;49.216;8.650;2023-07-13T16:51:46;1.42;;;1.00;;
7475;SDS011;3779;49.216;8.650;2023-07-13T16:54:34;3.10;;;1.10;;
7475;SDS011;3779;49.216;8.650;2023-07-13T16:57:25;1.10;;;1.00;;
7475;SDS011;3779;49.216;8.650;2023-07-13T17:00:20;1.42;;;1.08;;
7475;SDS011;3779;49.216;8.650;2023-07-13T17:03:14;1.60;;;1.10;;
7475;SDS011;3779;49.216;8.650;2023-07-13T17:06:00;1.95;;;1.20;;
7475;SDS011;3779;49.216;8.650;2023-07-13T17:09:04;1.30;;;1.10;;
7475;SDS011;3779;49.216;8.650;2023-07-13T17:11:54;0.90;;;0.90;;
7475;SDS011;3779;49.216;8.650;2023-07-13T17:14:40;0.88;;;0.80;;
7475;SDS011;3779;49.216;8.650;2023-07-13T17:17:31;1.52;;;1.40;;
7475;SDS011;3779;49.216;8.650;2023-07-13T17:23:38;3.00;;;1.48;;
7475;SDS011;3779;49.216;8.650;2023-07-13T17:26:28;2.65;;;1.83;;
7475;SDS011;3779;49.216;8.650;2023-07-13T17:29:18;2.78;;;1.50;;
7475;SDS011;3779;49.216;8.650;2023-07-13T17:32:13;2.55;;;1.30;;
7475;SDS011;3779;49.216;8.650;2023-07-13T17:35:04;1.20;;;1.10;;
7475;SDS011;3779;49.216;8.650;2023-07-13T17:38:04;2.80;;;1.40;;
7475;SDS011;3779;49.216;8.650;2023-07-13T17:40:51;1.92;;;1.10;;
7475;SDS011;3779;49.216;8.650;2023-07-13T17:43:37;1.58;;;1.40;;
7475;SDS011;3779;49.216;8.650;2023-07-13T17:46:28;2.35;;;1.48;;
7475;SDS011;3779;49.216;8.650;2023-07-13T17:49:24;1.20;;;1.10;;
7475;SDS011;3779;49.216;8.650;2023-07-13T17:52:19;2.35;;;1.17;;
7475;SDS011;3779;49.216;8.650;2023-07-13T17:58:00;1.30;;;1.00;;
7475;SDS011;3779;49.216;8.650;2023-07-13T18:00:46;1.58;;;0.90;;
7475;SDS011;3779;49.216;8.650;2023-07-13T18:03:34;1.08;;;0.80;;
7475;SDS011;3779;49.216;8.650;2023-07-13T18:06:37;1.23;;;0.80;;
7475;SDS011;3779;49.216;8.650;2023-07-13T18:09:27;2.90;;;1.20;;
7475;SDS011;3779;49.216;8.650;2023-07-13T18:12:14;1.23;;;1.05;;
7475;SDS011;3779;49.216;8.650;2023-07-13T18:15:00;2.88;;;1.30;;
7475;SDS011;3779;49.216;8.650;2023-07-13T18:17:48;1.25;;;1.00;;
7475;SDS011;3779;49.216;8.650;2023-07-13T18:20:38;2.67;;;1.20;;
7475;SDS011;3779;49.216;8.650;2023-07-13T18:23:29;2.35;;;1.38;;
7475;SDS011;3779;49.216;8.650;2023-07-13T18:26:18;1.67;;;1.17;;
7475;SDS011;3779;49.216;8.650;2023-07-13T18:29:05;1.40;;;1.00;;
7475;SDS011;3779;49.216;8.650;2023-07-13T18:31:54;1.77;;;1.17;;
7475;SDS011;3779;49.216;8.650;2023-07-13T18:37:58;3.30;;;1.50;;
7475;SDS011;3779;49.216;8.650;2023-07-13T18:40:44;4.57;;;1.60;;
7475;SDS011;3779;49.216;8.650;2023-07-13T18:43:31;2.60;;;1.80;;
7475;SDS011;3779;49.216;8.650;2023-07-13T18:46:21;1.85;;;1.25;;
7475;SDS011;3779;49.216;8.650;2023-07-13T18:49:11;3.70;;;1.40;;
7475;SDS011;3779;49.216;8.650;2023-07-13T18:51:58;1.77;;;1.30;;
7475;SDS011;3779;49.216;8.650;2023-07-13T18:54:44;4.38;;;1.40;;
7475;SDS011;3779;49.216;8.650;2023-07-13T18:57:31;0.90;;;0.90;;
7475;SDS011;3779;49.216;8.650;2023-07-13T19:00:19;1.38;;;1.00;;
7475;SDS011;3779;49.216;8.650;2023-07-13T19:03:11;1.13;;;0.85;;
7475;SDS011;3779;49.216;8.650;2023-07-13T19:06:03;1.40;;;0.90;;
7475;SDS011;3779;49.216;8.650;2023-07-13T19:08:50;1.15;;;0.90;;
7475;SDS011;3779;49.216;8.650;2023-07-13T19:11:36;1.75;;;0.95;;
7475;SDS011;3779;49.216;8.650;2023-07-13T19:14:22;1.13;;;1.02;;
7475;SDS011;3779;49.216;8.650;2023-07-13T19:17:09;2.00;;;1.00;;
7475;SDS011;3779;49.216;8.650;2023-07-13T19:19:56;1.13;;;1.02;;
7475;SDS011;3779;49.216;8.650;2023-07-13T19:22:54;5.95;;;1.75;;
7475;SDS011;3779;49.216;8.650;2023-07-13T19:25:45;2.90;;;1.40;;
7475;SDS011;3779;49.216;8.650;2023-07-13T19:28:34;2.88;;;1.67;;
7475;SDS011;3779;49.216;8.650;2023-07-13T19:31:24;3.75;;;1.40;;
7475;SDS011;3779;49.216;8.650;2023-07-13T19:34:24;4.50;;;1.48;;
7475;SDS011;3779;49.216;8.650;2023-07-13T19:37:14;4.60;;;1.67;;
7475;SDS011;3779;49.216;8.650;2023-07-13T19:43:08;5.00;;;1.75;;
7475;SDS011;3779;49.216;8.650;2023-07-13T19:45:57;3.15;;;1.50;;
7475;SDS011;3779;49.216;8.650;2023-07-13T19:48:42;2.75;;;1.20;;
7475;SDS011;3779;49.216;8.650;2023-07-13T19:51:28;2.95;;;1.63;;
7475;SDS011;3779;49.216;8.650;2023-07-13T19:54:15;3.75;;;1.63;;
7475;SDS011;3779;49.216;8.650;2023-07-13T19:57:02;3.15;;;1.65;;
7475;SDS011;3779;49.216;8.650;2023-07-13T19:59:49;3.22;;;1.48;;
7475;SDS011;3779;49.216;8.650;2023-07-13T20:02:37;3.22;;;1.67;;
7475;SDS011;3779;49.216;8.650;2023-07-13T20:05:23;1.83;;;1.40;;
7475;SDS011;3779;49.216;8.650;2023-07-13T20:08:13;3.65;;;1.80;;
7475;SDS011;3779;49.216;8.650;2023-07-13T20:11:04;3.72;;;1.50;;
7475;SDS011;3779;49.216;8.650;2023-07-13T20:13:49;1.65;;;1.42;;
7475;SDS011;3779;49.216;8.650;2023-07-13T20:16:35;2.95;;;1.60;;
7475;SDS011;3779;49.216;8.650;2023-07-13T20:19:22;2.28;;;1.40;;
7475;SDS011;3779;49.216;8.650;2023-07-13T20:22:09;2.38;;;1.33;;
7475;SDS011;3779;49.216;8.650;2023-07-13T20:24:57;2.67;;;1.55;;
7475;SDS011;3779;49.216;8.650;2023-07-13T20:27:43;3.50;;;1.90;;
7475;SDS011;3779;49.216;8.650;2023-07-13T20:30:34;2.75;;;1.60;;
7475;SDS011;3779;49.216;8.650;2023-07-13T20:33:27;2.67;;;1.60;;
7475;SDS011;3779;49.216;8.650;2023-07-13T20:36:14;2.63;;;1.70;;
7475;SDS011;3779;49.216;8.650;2023-07-13T20:39:00;2.45;;;1.60;;
7475;SDS011;3779;49.216;8.650;2023-07-13T20:41:46;2.03;;;1.63;;
7475;SDS011;3779;49.216;8.650;2023-07-13T20:44:33;2.95;;;1.50;;
7475;SDS011;3779;49.216;8.650;2023-07-13T20:47:19;2.53;;;1.70;;
7475;SDS011;3779;49.216;8.650;2023-07-13T20:50:19;4.35;;;1.70;;
7475;SDS011;3779;49.216;8.650;2023-07-13T20:53:09;2.72;;;1.98;;
7475;SDS011;3779;49.216;8.650;2023-07-13T20:55:56;3.72;;;1.80;;
7475;SDS011;3779;49.216;8.650;2023-07-13T20:58:42;2.70;;;1.70;;
7475;SDS011;3779;49.216;8.650;2023-07-13T21:01:30;2.30;;;1.63;;
7475;SDS011;3779;49.216;8.650;2023-07-13T21:04:18;4.40;;;1.50;;
7475;SDS011;3779;49.216;8.650;2023-07-13T21:07:04;2.50;;;1.90;;
7475;SDS011;3779;49.216;8.650;2023-07-13T21:09:50;2.88;;;1.50;;
7475;SDS011;3779;49.216;8.650;2023-07-13T21:12:36;1.70;;;1.60;;
7475;SDS011;3779;49.216;8.650;2023-07-13T21:15:26;3.47;;;1.63;;
7475;SDS011;3779;49.216;8.650;2023-07-13T21:18:20;3.20;;;1.60;;
7475;SDS011;3779;49.216;8.650;2023-07-13T21:21:12;3.05;;;1.73;;
7475;SDS011;3779;49.216;8.650;2023-07-13T21:24:00;3.67;;;1.60;;
7475;SDS011;3779;49.216;8.650;2023-07-13T21:26:48;2.30;;;1.70;;
7475;SDS011;3779;49.216;8.650;2023-07-13T21:29:34;3.47;;;1.80;;
7475;SDS011;3779;49.216;8.650;2023-07-13T21:32:20;4.05;;;1.60;;
7475;SDS011;3779;49.216;8.650;2023-07-13T21:35:28;1.58;;;1.42;;
7475;SDS011;3779;49.216;8.650;2023-07-13T21:38:22;2.42;;;1.45;;
7475;SDS011;3779;49.216;8.650;2023-07-13T21:41:37;2.63;;;1.70;;
7475;SDS011;3779;49.216;8.650;2023-07-13T21:44:24;4.30;;;1.67;;
7475;SDS011;3779;49.216;8.650;2023-07-13T21:47:12;5.65;;;1.60;;
7475;SDS011;3779;49.216;8.650;2023-07-13T21:49:58;6.40;;;1.63;;
7475;SDS011;3779;49.216;8.650;2023-07-13T21:52:44;3.63;;;1.58;;
7475;SDS011;3779;49.216;8.650;2023-07-13T21:55:31;1.65;;;1.50;;
7475;SDS011;3779;49.216;8.650;2023-07-13T21:58:18;2.15;;;1.55;;
7475;SDS011;3779;49.216;8.650;2023-07-13T22:04:05;3.55;;;1.33;;
7475;SDS011;3779;49.216;8.650;2023-07-13T22:06:57;3.13;;;1.58;;
7475;SDS011;3779;49.216;8.650;2023-07-13T22:09:44;2.63;;;1.77;;
7475;SDS011;3779;49.216;8.650;2023-07-13T22:12:30;1.60;;;1.50;;
7475;SDS011;3779;49.216;8.650;2023-07-13T22:15:16;2.65;;;1.70;;
7475;SDS011;3779;49.216;8.650;2023-07-13T22:18:10;3.35;;;1.55;;
7475;SDS011;3779;49.216;8.650;2023-07-13T22:20:59;1.48;;;1.38;;
7475;SDS011;3779;49.216;8.650;2023-07-13T22:23:46;2.08;;;1.50;;
7475;SDS011;3779;49.216;8.650;2023-07-13T22:26:33;2.45;;;1.60;;
7475;SDS011;3779;49.216;8.650;2023-07-13T22:29:23;1.67;;;1.50;;
7475;SDS011;3779;49.216;8.650;2023-07-13T22:32:12;3.60;;;1.60;;
7475;SDS011;3779;49.216;8.650;2023-07-13T22:34:59;2.78;;;1.40;;
7475;SDS011;3779;49.216;8.650;2023-07-13T22:37:45;1.85;;;1.40;;
7475;SDS011;3779;49.216;8.650;2023-07-13T22:40:31;1.80;;;1.38;;
7475;SDS011;3779;49.216;8.650;2023-07-13T22:43:17;3.53;;;1.55;;